Uni-arise — 3FSV7 — position and weather

sailwx.info

Track history (hours):
 
Tides and Currents Weather Stations Pressure Air Temp Water Temp Dewpoint Dewpoint Depression Visibility Wind Speed Wind Dir Waves Ship Positions

Uni-arise

Last reported at 2015-Apr-16 18:28 UTC. Time now 2015-Apr-19 22:49 UTC.
Position N 21°07' E 111°54'.

Length 165 m; draft 5.9 m.

Type: Cargo ship. MMSI: 351608000.

Date/timePositionNaut miles runAvg speedWind from/ knotsBaromVisibWave heightAir tempDewpointWater temp
2015-Apr-16 18:28N 21°07' E 111°54'3015.4
2015-Apr-16 16:33N 21°10' E 112°26'1515.4
2015-Apr-16 15:33N 21°12' E 112°42'1515.3
2015-Apr-16 14:33N 21°12' E 112°59'9114.8
2015-Apr-16 08:25N 22°02' E 114°20'2211.6
2015-Apr-16 06:33N 22°19' E 114°06'2 1.6
2015-Apr-16 05:29N 22°20' E 114°08'0 0.0
2015-Apr-16 04:17N 22°20' E 114°08'0 0.0
2015-Apr-16 03:29N 22°20' E 114°08'0 0.0
2015-Apr-16 02:32N 22°20' E 114°08'0 0.0
2015-Apr-16 01:26N 22°20' E 114°08'0 0.0
2015-Apr-16 00:29N 22°20' E 114°08'0 0.0
2015-Apr-15 23:32N 22°20' E 114°08'0 0.0
2015-Apr-15 22:29N 22°20' E 114°08'0 0.0
2015-Apr-15 21:29N 22°20' E 114°08'0 0.0
2015-Apr-15 20:32N 22°20' E 114°08'1 0.5
2015-Apr-15 19:34N 22°20' E 114°07'7 6.6
2015-Apr-15 18:31N 22°13' E 114°10'8 7.5
2015-Apr-15 17:26N 22°09' E 114°17'8 8.7
2015-Apr-15 16:33N 22°12' E 114°25'  
2015-Apr-12 11:23N 21°35' E 108°20'1 0.2
2015-Apr-12 08:32N 21°36' E 108°20'0 0.0
2015-Apr-12 07:32N 21°36' E 108°20'0 0.0
2015-Apr-12 06:03N 21°36' E 108°20'0 0.0
2015-Apr-12 05:27N 21°36' E 108°20'0 0.0
2015-Apr-12 04:27N 21°36' E 108°20'0 0.0
2015-Apr-12 00:09N 21°36' E 108°20'0 0.0
2015-Apr-11 21:15N 21°36' E 108°20'  
2015-Apr-09 14:32N 20°10' E 110°09'8 7.7
2015-Apr-09 13:32N 20°11' E 110°17'25314.1
2015-Apr-08 19:33N 22°02' E 114°20'1411.8
2015-Apr-08 18:24N 22°12' E 114°10'8 9.3
2015-Apr-08 17:33N 22°19' E 114°05'10 9.6
2015-Apr-08 16:30N 22°22' E 113°55'5 5.0
2015-Apr-08 15:29N 22°27' E 113°53'1 0.9
2015-Apr-08 14:23N 22°28' E 113°54'0 0.0
2015-Apr-08 13:29N 22°28' E 113°54'0 0.0
2015-Apr-08 12:23N 22°28' E 113°54'0 0.0
2015-Apr-08 11:17N 22°28' E 113°54'0 0.0
2015-Apr-08 10:23N 22°28' E 113°54'0 0.0
2015-Apr-08 09:23N 22°28' E 113°54'0 0.0
2015-Apr-08 08:29N 22°28' E 113°54'0 0.0
2015-Apr-08 07:29N 22°28' E 113°54'0 0.0
2015-Apr-08 06:29N 22°28' E 113°54'1 0.6
2015-Apr-08 05:33N 22°27' E 113°54'13 8.7
2015-Apr-08 04:05N 22°20' E 114°05'3 4.7
2015-Apr-08 03:33N 22°20' E 114°08'0 0.0
2015-Apr-08 02:33N 22°20' E 114°08'0 0.0
2015-Apr-08 01:30N 22°20' E 114°08'0 0.0
2015-Apr-08 00:33N 22°20' E 114°08'0 0.0
2015-Apr-07 23:33N 22°20' E 114°08'0 0.0
2015-Apr-07 22:33N 22°20' E 114°08'0 0.0
2015-Apr-07 21:30N 22°20' E 114°08'0 0.0
2015-Apr-07 20:30N 22°20' E 114°08'0 0.0
2015-Apr-07 19:33N 22°20' E 114°08'0 0.0
2015-Apr-07 18:33N 22°20' E 114°08'0 0.0
2015-Apr-07 17:33N 22°20' E 114°08'0 0.0
2015-Apr-07 16:30N 22°20' E 114°08'0 0.0
2015-Apr-07 15:33N 22°20' E 114°08'7 6.6
2015-Apr-07 14:26N 22°13' E 114°10'910.1
2015-Apr-07 13:33N 22°09' E 114°19'1313.3
2015-Apr-07 12:33N 22°18' E 114°29'  
Track history (hours):
 
Tides and Currents Weather Stations Pressure Air Temp Water Temp Dewpoint Dewpoint Depression Visibility Wind Speed Wind Dir Waves Ship Positions

Uni-arise

Last reported at 2015-Apr-16 18:28 UTC. Time now 2015-Apr-19 22:49 UTC.
Position N 21°07' E 111°54'.

Length 165 m; draft 5.9 m.

Type: Cargo ship. MMSI: 351608000.

Date/timePositionNaut miles runAvg speedWind from/ knotsBaromVisibWave heightAir tempDewpointWater temp
2015-Apr-16 18:28N 21°07' E 111°54'3015.4
2015-Apr-16 16:33N 21°10' E 112°26'1515.4
2015-Apr-16 15:33N 21°12' E 112°42'1515.3
2015-Apr-16 14:33N 21°12' E 112°59'9114.8
2015-Apr-16 08:25N 22°02' E 114°20'2211.6
2015-Apr-16 06:33N 22°19' E 114°06'2 1.6
2015-Apr-16 05:29N 22°20' E 114°08'0 0.0
2015-Apr-16 04:17N 22°20' E 114°08'0 0.0
2015-Apr-16 03:29N 22°20' E 114°08'0 0.0
2015-Apr-16 02:32N 22°20' E 114°08'0 0.0
2015-Apr-16 01:26N 22°20' E 114°08'0 0.0
2015-Apr-16 00:29N 22°20' E 114°08'0 0.0
2015-Apr-15 23:32N 22°20' E 114°08'0 0.0
2015-Apr-15 22:29N 22°20' E 114°08'0 0.0
2015-Apr-15 21:29N 22°20' E 114°08'0 0.0
2015-Apr-15 20:32N 22°20' E 114°08'1 0.5
2015-Apr-15 19:34N 22°20' E 114°07'7 6.6
2015-Apr-15 18:31N 22°13' E 114°10'8 7.5
2015-Apr-15 17:26N 22°09' E 114°17'8 8.7
2015-Apr-15 16:33N 22°12' E 114°25'  
2015-Apr-12 11:23N 21°35' E 108°20'1 0.2
2015-Apr-12 08:32N 21°36' E 108°20'0 0.0
2015-Apr-12 07:32N 21°36' E 108°20'0 0.0
2015-Apr-12 06:03N 21°36' E 108°20'0 0.0
2015-Apr-12 05:27N 21°36' E 108°20'0 0.0
2015-Apr-12 04:27N 21°36' E 108°20'0 0.0
2015-Apr-12 00:09N 21°36' E 108°20'0 0.0
2015-Apr-11 21:15N 21°36' E 108°20'  
2015-Apr-09 14:32N 20°10' E 110°09'8 7.7
2015-Apr-09 13:32N 20°11' E 110°17'25314.1
2015-Apr-08 19:33N 22°02' E 114°20'1411.8
2015-Apr-08 18:24N 22°12' E 114°10'8 9.3
2015-Apr-08 17:33N 22°19' E 114°05'10 9.6
2015-Apr-08 16:30N 22°22' E 113°55'5 5.0
2015-Apr-08 15:29N 22°27' E 113°53'1 0.9
2015-Apr-08 14:23N 22°28' E 113°54'0 0.0
2015-Apr-08 13:29N 22°28' E 113°54'0 0.0
2015-Apr-08 12:23N 22°28' E 113°54'0 0.0
2015-Apr-08 11:17N 22°28' E 113°54'0 0.0
2015-Apr-08 10:23N 22°28' E 113°54'0 0.0
2015-Apr-08 09:23N 22°28' E 113°54'0 0.0
2015-Apr-08 08:29N 22°28' E 113°54'0 0.0
2015-Apr-08 07:29N 22°28' E 113°54'0 0.0
2015-Apr-08 06:29N 22°28' E 113°54'1 0.6
2015-Apr-08 05:33N 22°27' E 113°54'13 8.7
2015-Apr-08 04:05N 22°20' E 114°05'3 4.7
2015-Apr-08 03:33N 22°20' E 114°08'0 0.0
2015-Apr-08 02:33N 22°20' E 114°08'0 0.0
2015-Apr-08 01:30N 22°20' E 114°08'0 0.0
2015-Apr-08 00:33N 22°20' E 114°08'0 0.0
2015-Apr-07 23:33N 22°20' E 114°08'0 0.0
2015-Apr-07 22:33N 22°20' E 114°08'0 0.0
2015-Apr-07 21:30N 22°20' E 114°08'0 0.0
2015-Apr-07 20:30N 22°20' E 114°08'0 0.0
2015-Apr-07 19:33N 22°20' E 114°08'0 0.0
2015-Apr-07 18:33N 22°20' E 114°08'0 0.0
2015-Apr-07 17:33N 22°20' E 114°08'0 0.0
2015-Apr-07 16:30N 22°20' E 114°08'0 0.0
2015-Apr-07 15:33N 22°20' E 114°08'7 6.6
2015-Apr-07 14:26N 22°13' E 114°10'910.1
2015-Apr-07 13:33N 22°09' E 114°19'1313.3
2015-Apr-07 12:33N 22°18' E 114°29'  

Dump ship's entire track history